Soaring Guidance
Issued by NWS Reno, NV

Home | Current Version | Previous Version | Text Only | Print | Product List | Glossary On
Versions: 1 2 3 4 5 6 7 8 9 10 11 12 13 14
000
UXUS97 KREV 061427
SRGREV

SOARING FORECAST NATIONAL WEATHER SERVICE - RENO NV 700 AM PDT WED
MAY 6 2015

THIS SOARING FORECAST IS FOR THE EASTERN SIERRA AND WESTERN NEVADA
WITH SPECIFIC INDICES FOR THE GREATER RENO AREA.

THIS FORECAST IS NOT UPDATED.

FOR CURRENT FLIGHT CONDITIONS...FORECASTS...AND ADVISORIES...ACCESS
YOUR LOCAL BRIEFING OUTLET OR FLIGHT SERVICE STATION.

*******************************************************************
LOCAL INDICES FOR RENO:                   TODAY     YESTERDAY
MAXIMUM TEMPERATURE AT RENO...(DEG F)...     67
TRIGGER TEMPERATURE...........(DEG F)...      M          60
MAXIMUM ALTITUDE..............(FT MSL)..      M       17100
SOARING INDEX.................(FPM).....      M        1023
FORECASTED K-INDEX.........VALID 18Z....      M          11
FORECASTED K-INDEX.........VALID 00Z....      M          20
FORECASTED LIFTED INDEX....VALID 18Z....      0           4
FORECASTED LIFTED INDEX....VALID 00Z....     -2           1

AFTERNOON WINDS ALOFT FORECAST
MSL (FT) WIND/TEMP
9000  2606/+01
10000 M
12000 2318/-03
14000 M
16000 M
18000 2523/-18
24000 2425/-30
30000 2335/-46
34000 2336/-56
39000 2428/-57

SLIDE MOUNTAIN DATA:
 SLD HR 1100 M M/M/M/M  /SLIDE MTN UNOFFICIAL OBSERVATION

RENO TAF FORECAST:
KRNO 061120Z 0612/0712 30011KT P6SM FEW200
     FM061800 30010G20KT P6SM VCSH SCT050 BKN100
     FM062200 30015G25KT P6SM -RA SCT040 BKN080
     FM070800 35009G18KT P6SM VCSH OVC100

CARSON CITY TAF FORECAST:
KCXP 061120Z 0612/0712 20007KT P6SM SCT200
     FM061900 27012G20KT P6SM VCSH SCT050 BKN100
     FM062200 28010G20KT P6SM -RA SCT040 BKN080
     FM070700 33008G19KT P6SM VCSH OVC100

OUTLOOK FOR THE RENO-CARSON CITY-MINDEN AREA:
.WEDNESDAY...PARTLY CLOUDY IN THE MORNING...THEN MOSTLY CLOUDY
WITH A SLIGHT CHANCE OF SHOWERS AND THUNDERSTORMS IN THE
AFTERNOON. HIGHS 63 TO 68. NORTHWEST WINDS UP TO 10 MPH SHIFTING
TO THE WEST 10-15 MPH WITH GUSTS UP TO 30 MPH IN THE AFTERNOON.

SUNRISE AND SUNSET
MAY  5 2015...........SUNRISE   556 AM PDT   SUNSET   757 PM PDT
MAY  6 2015...........SUNRISE   554 AM PDT   SUNSET   758 PM PDT



THIS PRODUCT IS ROUTINELY PREPARED BY 700 AM AND IS
DISTRIBUTED TO THE RENO FLIGHT SERVICE STATION AS WELL AS THE
NATIONAL WEATHER SERVICE WORLD WIDE WEB HOMEPAGE AT:
       HTTP://WWW.WEATHER.GOV/RENO



USA.gov is the U.S. government's official web portal to all federal, state and local government web resources and services.